createdAt,value
2022-12-23T00:02:42.510Z,4.87
2022-12-23T00:06:35.444Z,4.86
2022-12-23T00:10:28.202Z,4.86
2022-12-23T00:14:39.292Z,4.81
2022-12-23T00:18:32.875Z,4.87
2022-12-23T00:22:45.809Z,4.86
2022-12-23T00:26:38.964Z,4.81
2022-12-23T00:30:31.696Z,4.80
2022-12-23T00:34:24.690Z,4.77
2022-12-23T00:38:38.617Z,4.84
2022-12-23T00:42:51.716Z,4.80
2022-12-23T00:46:44.666Z,4.76
2022-12-23T00:50:39.732Z,4.77
2022-12-23T00:54:32.591Z,4.76
2022-12-23T00:58:25.961Z,4.76
2022-12-23T01:02:37.524Z,4.80
2022-12-23T01:06:30.372Z,4.76
2022-12-23T01:10:23.114Z,4.77
2022-12-23T01:14:17.773Z,4.80
2022-12-23T01:18:10.360Z,4.77
2022-12-23T01:22:03.699Z,4.73
2022-12-23T01:26:01.267Z,4.80
2022-12-23T01:29:54.073Z,4.90
2022-12-23T01:33:46.880Z,4.79
2022-12-23T01:37:39.400Z,4.81
2022-12-23T01:41:52.838Z,4.83
2022-12-23T01:45:46.239Z,4.65
2022-12-23T01:49:39.715Z,4.69
2022-12-23T01:53:37.423Z,4.62
2022-12-23T01:57:30.649Z,4.56
2022-12-23T02:01:46.023Z,4.57
2022-12-23T02:05:39.481Z,4.57
2022-12-23T02:09:38.396Z,4.66
2022-12-23T02:14:17.012Z,4.66
2022-12-23T02:18:15.333Z,4.81
2022-12-23T02:22:47.081Z,4.79
2022-12-23T02:27:16.676Z,4.76
2022-12-23T02:31:34.758Z,4.65
2022-12-23T02:35:42.768Z,4.63
2022-12-23T02:39:50.476Z,4.41
2022-12-23T02:43:47.863Z,4.48
2022-12-23T02:47:56.746Z,4.59
2022-12-23T02:51:53.998Z,4.60
2022-12-23T02:55:49.411Z,4.50
2022-12-23T02:59:48.778Z,4.56
2022-12-23T03:03:42.003Z,4.34
2022-12-23T03:07:43.444Z,4.39
2022-12-23T03:12:01.769Z,4.35
2022-12-23T03:16:11.656Z,4.21
2022-12-23T03:20:22.365Z,4.15
2022-12-23T03:24:41.097Z,4.15
2022-12-23T03:28:42.701Z,4.01
2022-12-23T03:32:46.596Z,3.98
2022-12-23T03:36:44.318Z,3.81
2022-12-23T03:40:38.097Z,3.59
2022-12-23T03:44:35.998Z,3.67
2022-12-23T03:48:49.022Z,3.64
2022-12-23T03:52:52.446Z,3.79
2022-12-23T03:57:01.600Z,3.60
2022-12-23T04:01:18.753Z,3.59
2022-12-23T04:05:27.245Z,3.62
2022-12-23T04:09:22.933Z,3.56
2022-12-23T04:13:19.987Z,3.70
2022-12-23T04:17:12.625Z,3.59
2022-12-23T04:21:05.876Z,3.59
2022-12-23T04:24:58.516Z,3.73
2022-12-23T04:28:51.066Z,3.74
2022-12-23T04:32:43.772Z,3.69
2022-12-23T04:36:36.595Z,3.72
2022-12-23T04:40:29.057Z,3.74
2022-12-23T04:44:21.877Z,3.66
2022-12-23T04:48:14.306Z,3.77
2022-12-23T04:52:07.541Z,3.74
2022-12-23T04:56:00.106Z,3.69
2022-12-23T04:59:52.796Z,4.05
2022-12-23T05:03:45.623Z,3.95
2022-12-23T05:07:38.292Z,3.87
2022-12-23T05:11:37.073Z,3.83
2022-12-23T05:15:33.241Z,3.80
2022-12-23T05:19:25.953Z,3.74
2022-12-23T05:23:19.025Z,3.77
2022-12-23T05:27:11.602Z,3.72
2022-12-23T05:31:08.446Z,3.77
2022-12-23T05:35:01.082Z,3.84
2022-12-23T05:38:53.714Z,3.79
2022-12-23T05:42:46.946Z,3.86
2022-12-23T05:46:39.689Z,4.02
2022-12-23T05:50:33.071Z,3.93
2022-12-23T05:54:25.804Z,4.27
2022-12-23T05:58:18.564Z,4.35
2022-12-23T06:02:11.538Z,4.25
2022-12-23T06:06:04.565Z,4.24
2022-12-23T06:09:57.439Z,4.27
2022-12-23T06:13:50.045Z,4.17
2022-12-23T06:17:42.976Z,4.15
2022-12-23T06:21:36.979Z,4.02
2022-12-23T06:25:29.772Z,3.89
2022-12-23T06:29:22.546Z,3.98
2022-12-23T06:33:15.066Z,4.00
2022-12-23T06:37:07.898Z,3.97
2022-12-23T06:41:00.677Z,4.04
2022-12-23T06:44:53.444Z,4.02
2022-12-23T06:48:46.213Z,4.05
2022-12-23T06:52:38.886Z,4.19
2022-12-23T06:56:33.907Z,4.02
2022-12-23T07:00:26.728Z,4.12
2022-12-23T07:04:19.352Z,4.19
2022-12-23T07:08:12.181Z,4.45
2022-12-23T07:12:05.921Z,4.42
2022-12-23T07:15:59.226Z,4.29
2022-12-23T07:19:51.799Z,4.28
2022-12-23T07:23:44.713Z,4.28
2022-12-23T07:27:37.413Z,4.38
2022-12-23T07:31:32.109Z,4.31
2022-12-23T07:35:25.321Z,4.31
2022-12-23T07:39:18.034Z,4.39
2022-12-23T07:43:10.965Z,4.45
2022-12-23T07:47:03.638Z,4.31
2022-12-23T07:51:04.105Z,4.32
2022-12-23T07:54:57.049Z,4.53
2022-12-23T07:58:50.535Z,4.48
2022-12-23T08:02:44.016Z,4.67
2022-12-23T08:06:37.107Z,4.81
2022-12-23T08:10:30.007Z,4.73
2022-12-23T08:14:23.668Z,4.73
2022-12-23T08:18:16.323Z,4.56
2022-12-23T08:22:09.095Z,4.55
2022-12-23T08:26:03.670Z,4.48
2022-12-23T08:29:56.300Z,4.57
2022-12-23T08:33:52.135Z,4.62
2022-12-23T08:37:44.853Z,4.60
2022-12-23T08:41:41.415Z,4.56
2022-12-23T08:45:38.862Z,4.57
2022-12-23T08:49:31.510Z,4.62
2022-12-23T08:53:24.281Z,4.66
2022-12-23T08:57:17.043Z,4.49
2022-12-23T09:01:12.648Z,4.55
2022-12-23T09:05:05.635Z,4.72
2022-12-23T09:08:58.984Z,4.87
2022-12-23T09:12:52.002Z,4.91
2022-12-23T09:16:44.876Z,5.04
2022-12-23T09:20:39.024Z,5.20
2022-12-23T09:24:32.661Z,5.28
2022-12-23T09:28:26.355Z,5.30
2022-12-23T09:32:19.518Z,5.34
2022-12-23T09:36:12.127Z,5.32
2022-12-23T09:40:06.524Z,5.32
2022-12-23T09:44:37.770Z,5.36
2022-12-23T09:48:39.261Z,5.42
2022-12-23T09:52:49.875Z,5.17
2022-12-23T09:57:01.003Z,5.22
2022-12-23T10:01:17.013Z,5.41
2022-12-23T10:05:59.489Z,5.35
2022-12-23T10:09:54.814Z,5.48
2022-12-23T10:13:51.813Z,5.41
2022-12-23T10:17:45.855Z,5.31
2022-12-23T10:21:47.608Z,5.31
2022-12-23T10:25:50.308Z,5.27
2022-12-23T10:29:43.385Z,5.39
2022-12-23T10:34:13.791Z,5.35
2022-12-23T10:38:15.486Z,5.42
2022-12-23T10:42:11.422Z,5.49
2022-12-23T10:46:30.861Z,5.52
2022-12-23T10:50:39.565Z,5.43
2022-12-23T10:54:37.145Z,5.55
2022-12-23T10:58:30.729Z,5.67
2022-12-23T11:02:46.012Z,5.70
2022-12-23T11:06:41.280Z,5.58
2022-12-23T11:10:34.448Z,5.56
2022-12-23T11:14:31.432Z,5.66
2022-12-23T11:18:24.064Z,5.73
2022-12-23T11:22:25.562Z,5.49
2022-12-23T11:26:20.400Z,5.48
2022-12-23T11:30:20.017Z,5.58
2022-12-23T11:34:24.762Z,5.66
2022-12-23T11:38:17.460Z,5.77
2022-12-23T11:42:19.323Z,5.67
2022-12-23T11:46:24.462Z,5.80
2022-12-23T11:50:38.699Z,5.80
2022-12-23T11:54:32.907Z,5.58
2022-12-23T11:58:26.346Z,5.60
2022-12-23T12:02:39.983Z,5.77
2022-12-23T12:06:33.482Z,5.59
2022-12-23T12:10:32.947Z,5.65
2022-12-23T12:14:49.873Z,5.62
2022-12-23T12:18:43.907Z,5.66
2022-12-23T12:22:46.324Z,5.71
2022-12-23T12:26:40.816Z,5.66
2022-12-23T12:30:41.004Z,5.73
2022-12-23T12:35:01.825Z,5.87
2022-12-23T12:38:57.457Z,5.83
2022-12-23T12:43:00.140Z,5.74
2022-12-23T12:47:28.004Z,5.71
2022-12-23T12:51:31.723Z,5.58
2022-12-23T12:55:35.112Z,5.53
2022-12-23T12:59:33.169Z,5.51
2022-12-23T13:03:50.450Z,5.49
2022-12-23T13:07:49.201Z,5.52
2022-12-23T13:12:04.170Z,5.46
2022-12-23T13:16:02.619Z,5.46
2022-12-23T13:20:23.425Z,5.42
2022-12-23T13:24:34.519Z,5.41
2022-12-23T13:28:45.931Z,5.38
2022-12-23T13:33:24.364Z,5.43
2022-12-23T13:37:42.494Z,5.39
2022-12-23T13:41:41.321Z,5.38
2022-12-23T13:45:38.862Z,5.51
2022-12-23T13:49:40.479Z,5.46
2022-12-23T13:53:48.252Z,5.51
2022-12-23T13:58:02.166Z,5.27
2022-12-23T14:01:56.843Z,5.22
2022-12-23T14:05:53.370Z,5.18
2022-12-23T14:09:53.372Z,5.00
2022-12-23T14:13:52.235Z,4.95
2022-12-23T14:18:06.832Z,4.95
2022-12-23T14:22:51.155Z,5.00
2022-12-23T14:27:17.480Z,5.04
2022-12-23T14:31:44.944Z,5.11
2022-12-23T14:36:13.360Z,5.18
2022-12-23T14:40:37.243Z,5.07
2022-12-23T14:44:35.835Z,5.07
2022-12-23T14:48:44.818Z,4.98
2022-12-23T14:52:48.566Z,5.14
2022-12-23T14:56:42.115Z,5.04
2022-12-23T15:00:46.459Z,5.04
2022-12-23T15:04:55.051Z,4.93
2022-12-23T15:08:51.016Z,4.90
2022-12-23T15:12:48.356Z,4.91
2022-12-23T15:16:45.291Z,4.94
2022-12-23T15:20:38.535Z,4.80
2022-12-23T15:24:31.201Z,4.90
2022-12-23T15:28:38.985Z,4.79
2022-12-23T15:32:32.182Z,4.75
2022-12-23T15:36:32.340Z,4.83
2022-12-23T15:40:31.820Z,4.72
2022-12-23T15:44:33.443Z,4.63
2022-12-23T15:48:32.199Z,4.65
2022-12-23T15:52:25.451Z,4.69
2022-12-23T15:56:25.997Z,4.75
2022-12-23T16:00:21.957Z,4.72
2022-12-23T16:04:27.071Z,4.77
2022-12-23T16:08:29.592Z,4.90
2022-12-23T16:12:25.934Z,4.86
2022-12-23T16:16:42.694Z,4.67
2022-12-23T16:20:42.040Z,4.60
2022-12-23T16:24:34.893Z,4.67
2022-12-23T16:28:33.768Z,4.59
2022-12-23T16:32:26.649Z,4.56
2022-12-23T16:36:28.429Z,4.73
2022-12-23T16:40:21.449Z,4.73
2022-12-23T16:44:14.313Z,4.53
2022-12-23T16:48:18.720Z,4.52
2022-12-23T16:52:14.495Z,4.69
2022-12-23T16:56:18.634Z,4.49
2022-12-23T17:00:16.782Z,4.56
2022-12-23T17:04:09.758Z,4.50
2022-12-23T17:08:02.522Z,4.35
2022-12-23T17:11:58.071Z,4.38
2022-12-23T17:15:50.918Z,4.38
2022-12-23T17:19:43.875Z,4.46
2022-12-23T17:23:36.476Z,4.38
2022-12-23T17:27:29.307Z,4.41
2022-12-23T17:31:27.157Z,4.42
2022-12-23T17:35:21.136Z,4.39
2022-12-23T17:39:13.820Z,4.45
2022-12-23T17:43:06.476Z,4.42
2022-12-23T17:46:59.277Z,4.48
2022-12-23T17:50:52.351Z,4.46
2022-12-23T17:54:48.088Z,4.57
2022-12-23T17:58:42.134Z,4.75
2022-12-23T18:02:35.639Z,4.45
2022-12-23T18:06:29.220Z,4.46
2022-12-23T18:10:25.514Z,4.60
2022-12-23T18:14:24.033Z,4.31
2022-12-23T18:18:27.581Z,4.22
2022-12-23T18:22:24.134Z,4.11
2022-12-23T18:26:17.179Z,4.15
2022-12-23T18:30:10.717Z,4.07
2022-12-23T18:34:04.118Z,4.08
2022-12-23T18:37:58.517Z,3.83
2022-12-23T18:41:51.422Z,3.77
2022-12-23T18:45:50.715Z,3.83
2022-12-23T18:49:45.439Z,3.73
2022-12-23T18:53:38.183Z,3.73
2022-12-23T18:57:31.036Z,3.63
2022-12-23T19:01:26.334Z,3.55
2022-12-23T19:05:25.946Z,3.46
2022-12-23T19:09:21.979Z,3.46
2022-12-23T19:13:15.699Z,3.43
2022-12-23T19:17:08.549Z,3.52
2022-12-23T19:21:04.731Z,3.40
2022-12-23T19:25:05.961Z,3.39
2022-12-23T19:28:59.402Z,3.40
2022-12-23T19:32:53.654Z,3.53
2022-12-23T19:36:46.484Z,3.60
2022-12-23T19:40:39.866Z,3.69
2022-12-23T19:44:32.542Z,3.69
2022-12-23T19:48:25.530Z,3.74
2022-12-23T19:52:18.212Z,3.67
2022-12-23T19:56:16.982Z,3.62
2022-12-23T20:00:10.400Z,3.80
2022-12-23T20:04:03.698Z,3.79
2022-12-23T20:07:56.350Z,3.90
2022-12-23T20:11:50.441Z,3.90
2022-12-23T20:15:43.180Z,3.84
2022-12-23T20:19:39.128Z,3.86
2022-12-23T20:23:36.779Z,3.89
2022-12-23T20:27:29.643Z,3.80
2022-12-23T20:31:25.296Z,3.86
2022-12-23T20:35:18.608Z,3.86
2022-12-23T20:39:11.623Z,3.94
2022-12-23T20:43:04.557Z,4.02
2022-12-23T20:46:57.439Z,3.84
2022-12-23T20:50:50.104Z,3.83
2022-12-23T20:54:43.037Z,3.67
2022-12-23T20:58:57.901Z,3.87
2022-12-23T21:02:50.971Z,3.87
2022-12-23T21:06:44.312Z,3.87
2022-12-23T21:10:37.191Z,3.98
2022-12-23T21:14:29.891Z,3.98
2022-12-23T21:18:22.462Z,4.17
2022-12-23T21:22:15.405Z,4.17
2022-12-23T21:26:14.332Z,4.15
2022-12-23T21:30:07.555Z,4.08
2022-12-23T21:34:02.538Z,3.98
2022-12-23T21:37:55.113Z,4.07
2022-12-23T21:41:51.214Z,3.95
2022-12-23T21:45:43.938Z,4.05
2022-12-23T21:49:36.752Z,4.10
2022-12-23T21:53:29.490Z,3.98
2022-12-23T21:57:22.035Z,4.02
2022-12-23T22:01:20.657Z,3.95
2022-12-23T22:05:14.945Z,4.02
2022-12-23T22:09:08.345Z,4.07
2022-12-23T22:13:01.184Z,4.04
2022-12-23T22:16:53.871Z,4.07
2022-12-23T22:20:46.708Z,4.10
2022-12-23T22:24:39.515Z,4.00
2022-12-23T22:28:34.074Z,4.05
2022-12-23T22:32:27.099Z,4.04
2022-12-23T22:36:20.088Z,4.05
2022-12-23T22:40:13.349Z,4.00
2022-12-23T22:44:08.349Z,3.94
2022-12-23T22:48:00.957Z,4.02
2022-12-23T22:51:54.057Z,4.00
2022-12-23T22:55:57.005Z,4.01
2022-12-23T22:59:50.160Z,4.08
2022-12-23T23:03:43.132Z,4.19
2022-12-23T23:07:35.701Z,4.07
2022-12-23T23:11:30.205Z,4.18
2022-12-23T23:15:22.821Z,4.21
2022-12-23T23:19:17.259Z,4.45
2022-12-23T23:23:10.432Z,4.46
2022-12-23T23:27:02.928Z,4.50
2022-12-23T23:31:23.859Z,4.57
2022-12-23T23:35:11.126Z,4.70
2022-12-23T23:39:04.230Z,4.60
2022-12-23T23:42:56.912Z,4.48
2022-12-23T23:46:49.646Z,4.35
2022-12-23T23:50:42.837Z,4.44
2022-12-23T23:54:35.950Z,4.45
2022-12-23T23:58:28.564Z,4.38
